AFL694 UGTB-VIDP
Flight info
| Callsign | AFL694 |
|---|---|
| Flight time | N/A |
| Altitude | 39000 |
| Route | DISKA M737 VERCA M747 BODKA B375 GIRUN G792 MSD B411 PAMTU P628 RK G202 MERUN G452 LKA LKA6A |
| Aircraft | A20N/M-SDE2E3FGHIRWXY/LB1 |
Departure
| Time | 2026-04-26 17:38 |
|---|---|
| Airport | Tbilisi International Airport (UGTB) |
Arrival
| Time | N/A |
|---|---|
| Airport | Indira Gandhi International Airport (VIDP) |
| Time | Latitude | Longitude | Altitude | Speed | Heading |
|---|---|---|---|---|---|
| 2026-04-26 16:47 | 41.66938 | 44.96283 | 1551 ft | 0 kts | 42° |
| 2026-04-26 17:17 | 41.66937 | 44.96281 | 1551 ft | 2 kts | 42° |
| 2026-04-26 17:17 | 41.66930 | 44.96272 | 1551 ft | 4 kts | 42° |
| 2026-04-26 17:17 | 41.66915 | 44.96254 | 1552 ft | 4 kts | 42° |
| 2026-04-26 17:17 | 41.66889 | 44.96222 | 1553 ft | 2 kts | 34° |
| 2026-04-26 17:18 | 41.66878 | 44.96215 | 1553 ft | 1 kts | 8° |
| 2026-04-26 17:18 | 41.66869 | 44.96214 | 1554 ft | 0 kts | 334° |
| 2026-04-26 17:24 | 41.66875 | 44.96206 | 1552 ft | 4 kts | 314° |
| 2026-04-26 17:24 | 41.66916 | 44.96143 | 1552 ft | 13 kts | 306° |
| 2026-04-26 17:24 | 41.66973 | 44.96020 | 1553 ft | 18 kts | 312° |
| 2026-04-26 17:24 | 41.67072 | 44.95876 | 1553 ft | 24 kts | 314° |
| 2026-04-26 17:25 | 41.67196 | 44.95707 | 1555 ft | 27 kts | 314° |
| 2026-04-26 17:25 | 41.67327 | 44.95527 | 1556 ft | 27 kts | 314° |
| 2026-04-26 17:25 | 41.67453 | 44.95345 | 1557 ft | 26 kts | 312° |
| 2026-04-26 17:25 | 41.67577 | 44.95166 | 1558 ft | 26 kts | 313° |
| 2026-04-26 17:26 | 41.67652 | 44.95062 | 1559 ft | 13 kts | 314° |
| 2026-04-26 17:26 | 41.67658 | 44.94942 | 1559 ft | 14 kts | 255° |
| 2026-04-26 17:26 | 41.67629 | 44.94803 | 1558 ft | 17 kts | 254° |
| 2026-04-26 17:26 | 41.67594 | 44.94639 | 1556 ft | 20 kts | 253° |
| 2026-04-26 17:27 | 41.67555 | 44.94497 | 1556 ft | 7 kts | 253° |
| 2026-04-26 17:27 | 41.67553 | 44.94491 | 1556 ft | 0 kts | 253° |
| 2026-04-26 17:32 | 41.67552 | 44.94486 | 1557 ft | 1 kts | 252° |
| 2026-04-26 17:32 | 41.67547 | 44.94465 | 1559 ft | 4 kts | 251° |
| 2026-04-26 17:33 | 41.67535 | 44.94420 | 1567 ft | 7 kts | 252° |
| 2026-04-26 17:33 | 41.67549 | 44.94316 | 1575 ft | 17 kts | 310° |
| 2026-04-26 17:33 | 41.67662 | 44.94178 | 1580 ft | 25 kts | 316° |
| 2026-04-26 17:34 | 41.67773 | 44.94037 | 1585 ft | 4 kts | 191° |
| 2026-04-26 17:34 | 41.67741 | 44.94068 | 1584 ft | 0 kts | 135° |
| 2026-04-26 17:37 | 41.67608 | 44.94237 | 1578 ft | 67 kts | 136° |
| 2026-04-26 17:37 | 41.67079 | 44.94905 | 1563 ft | 138 kts | 136° |
| 2026-04-26 17:37 | 41.66282 | 44.95946 | 1743 ft | 177 kts | 135° |
| 2026-04-26 17:38 | 41.64285 | 44.98422 | 3017 ft | 219 kts | 138° |
| 2026-04-26 17:38 | 41.63049 | 44.99901 | 3394 ft | 255 kts | 137° |
| 2026-04-26 17:38 | 41.61702 | 45.01583 | 4119 ft | 272 kts | 137° |
| 2026-04-26 17:38 | 41.60329 | 45.03332 | 5195 ft | 273 kts | 137° |
| 2026-04-26 17:39 | 41.58946 | 45.05103 | 6218 ft | 278 kts | 138° |
| 2026-04-26 17:39 | 41.57558 | 45.06870 | 7128 ft | 284 kts | 138° |
| 2026-04-26 17:39 | 41.56093 | 45.08848 | 7674 ft | 308 kts | 131° |
| 2026-04-26 17:39 | 41.54801 | 45.11309 | 7912 ft | 341 kts | 123° |
| 2026-04-26 17:40 | 41.53532 | 45.14157 | 7995 ft | 374 kts | 122° |
| 2026-04-26 17:40 | 41.53096 | 45.15141 | 7996 ft | 384 kts | 122° |
| 2026-04-26 17:40 | 41.50638 | 45.20582 | 8041 ft | 428 kts | 122° |
| 2026-04-26 17:40 | 41.49161 | 45.23846 | 8364 ft | 406 kts | 122° |
| 2026-04-26 17:41 | 41.47713 | 45.27036 | 7977 ft | 393 kts | 122° |
| 2026-04-26 17:41 | 41.46315 | 45.29987 | 8162 ft | 364 kts | 129° |
| 2026-04-26 17:41 | 41.44607 | 45.32382 | 7999 ft | 347 kts | 139° |
| 2026-04-26 17:41 | 41.42889 | 45.34523 | 7996 ft | 329 kts | 138° |
| 2026-04-26 17:42 | 41.41283 | 45.36588 | 7991 ft | 312 kts | 137° |
| 2026-04-26 17:42 | 41.39803 | 45.38588 | 7995 ft | 295 kts | 135° |
| 2026-04-26 17:42 | 41.38418 | 45.40529 | 7994 ft | 287 kts | 135° |
| 2026-04-26 17:42 | 41.37040 | 45.42494 | 7996 ft | 291 kts | 134° |
| 2026-04-26 17:43 | 41.35671 | 45.44459 | 7991 ft | 289 kts | 134° |
| 2026-04-26 17:43 | 41.34302 | 45.46429 | 7988 ft | 289 kts | 134° |
| 2026-04-26 17:43 | 41.32933 | 45.48397 | 8008 ft | 290 kts | 134° |
| 2026-04-26 17:43 | 41.31554 | 45.50376 | 8284 ft | 294 kts | 134° |
| 2026-04-26 17:44 | 41.30160 | 45.52375 | 9109 ft | 295 kts | 134° |
| 2026-04-26 17:44 | 41.28757 | 45.54389 | 9974 ft | 299 kts | 135° |
| 2026-04-26 17:44 | 41.27311 | 45.56462 | 10478 ft | 316 kts | 135° |
| 2026-04-26 17:44 | 41.25756 | 45.58680 | 10729 ft | 339 kts | 134° |
| 2026-04-26 17:45 | 41.24105 | 45.61028 | 11213 ft | 351 kts | 134° |
| 2026-04-26 17:45 | 41.22456 | 45.63443 | 11968 ft | 356 kts | 129° |
| 2026-04-26 17:45 | 41.21114 | 45.66241 | 12740 ft | 363 kts | 117° |
| 2026-04-26 17:45 | 41.20203 | 45.69384 | 13484 ft | 368 kts | 107° |
| 2026-04-26 17:46 | 41.19490 | 45.72669 | 14205 ft | 372 kts | 107° |
| 2026-04-26 17:46 | 41.18752 | 45.75989 | 14849 ft | 376 kts | 108° |
| 2026-04-26 17:46 | 41.17981 | 45.79330 | 15509 ft | 380 kts | 108° |
| 2026-04-26 17:46 | 41.17185 | 45.82692 | 16141 ft | 384 kts | 109° |
| 2026-04-26 17:47 | 41.16379 | 45.86051 | 16777 ft | 388 kts | 109° |
| 2026-04-26 17:47 | 41.16101 | 45.87204 | 16994 ft | 389 kts | 109° |
| 2026-04-26 17:47 | 41.14714 | 45.92947 | 18030 ft | 397 kts | 110° |
| 2026-04-26 17:47 | 41.13868 | 45.96446 | 18616 ft | 400 kts | 110° |
| 2026-04-26 17:48 | 41.13020 | 45.99968 | 19199 ft | 402 kts | 110° |
| 2026-04-26 17:48 | 41.12162 | 46.03525 | 19761 ft | 405 kts | 110° |
| 2026-04-26 17:48 | 41.11295 | 46.07102 | 20309 ft | 409 kts | 110° |
| 2026-04-26 17:48 | 41.10423 | 46.10699 | 20859 ft | 412 kts | 111° |
| 2026-04-26 17:49 | 41.09545 | 46.14324 | 21419 ft | 414 kts | 111° |
| 2026-04-26 17:49 | 41.08658 | 46.17970 | 21966 ft | 417 kts | 111° |
| 2026-04-26 17:49 | 41.07766 | 46.21642 | 22499 ft | 420 kts | 111° |
| 2026-04-26 17:49 | 41.06867 | 46.25337 | 23037 ft | 423 kts | 111° |
| 2026-04-26 17:50 | 41.05957 | 46.29063 | 23582 ft | 425 kts | 112° |
| 2026-04-26 17:50 | 41.05041 | 46.32812 | 24021 ft | 428 kts | 112° |
| 2026-04-26 17:50 | 41.04120 | 46.36575 | 24454 ft | 431 kts | 112° |
| 2026-04-26 17:50 | 41.03195 | 46.40354 | 24878 ft | 433 kts | 112° |
| 2026-04-26 17:51 | 41.02260 | 46.44163 | 25304 ft | 436 kts | 112° |
| 2026-04-26 17:51 | 41.01319 | 46.47995 | 25702 ft | 439 kts | 112° |
| 2026-04-26 17:51 | 41.00371 | 46.51850 | 26090 ft | 441 kts | 112° |
| 2026-04-26 17:51 | 40.99729 | 46.54459 | 26345 ft | 443 kts | 112° |
| 2026-04-26 17:52 | 40.98770 | 46.58355 | 26739 ft | 446 kts | 112° |
| 2026-04-26 17:52 | 40.97805 | 46.62268 | 27113 ft | 448 kts | 112° |
| 2026-04-26 17:52 | 40.96834 | 46.66200 | 27462 ft | 451 kts | 112° |
| 2026-04-26 17:52 | 40.95858 | 46.70148 | 27816 ft | 453 kts | 112° |
| 2026-04-26 17:53 | 40.94871 | 46.74129 | 28160 ft | 456 kts | 112° |
| 2026-04-26 17:53 | 40.93881 | 46.78122 | 28494 ft | 458 kts | 112° |
| 2026-04-26 17:53 | 40.92883 | 46.82137 | 28812 ft | 461 kts | 112° |
| 2026-04-26 17:54 | 40.90871 | 46.90219 | 29439 ft | 465 kts | 112° |
| 2026-04-26 17:54 | 40.89857 | 46.94282 | 29755 ft | 467 kts | 113° |
| 2026-04-26 17:54 | 40.88834 | 46.98371 | 30061 ft | 469 kts | 113° |
| 2026-04-26 17:54 | 40.87808 | 47.02467 | 30325 ft | 471 kts | 113° |
| 2026-04-26 17:55 | 40.86771 | 47.06598 | 30599 ft | 473 kts | 113° |
| 2026-04-26 17:55 | 40.85747 | 47.10671 | 30863 ft | 475 kts | 113° |
| 2026-04-26 17:55 | 40.84690 | 47.14872 | 31119 ft | 477 kts | 113° |
| 2026-04-26 17:55 | 40.83653 | 47.18987 | 31423 ft | 478 kts | 113° |
| 2026-04-26 17:56 | 40.82604 | 47.23144 | 31766 ft | 477 kts | 113° |
| 2026-04-26 17:56 | 40.80492 | 47.31489 | 32417 ft | 476 kts | 113° |
| 2026-04-26 17:57 | 40.78397 | 47.39737 | 33046 ft | 476 kts | 113° |
| 2026-04-26 17:57 | 40.77346 | 47.43866 | 33360 ft | 475 kts | 113° |
| 2026-04-26 17:57 | 40.76292 | 47.47994 | 33647 ft | 475 kts | 113° |
| 2026-04-26 17:57 | 40.75234 | 47.52129 | 33913 ft | 475 kts | 113° |
| 2026-04-26 17:58 | 40.72066 | 47.64486 | 34672 ft | 474 kts | 114° |
| 2026-04-26 17:59 | 40.69948 | 47.72711 | 35118 ft | 473 kts | 114° |
| 2026-04-26 17:59 | 40.68888 | 47.76816 | 35339 ft | 473 kts | 114° |
| 2026-04-26 17:59 | 40.67831 | 47.80908 | 35537 ft | 473 kts | 114° |
| 2026-04-26 17:59 | 40.66768 | 47.85013 | 35729 ft | 473 kts | 114° |
| 2026-04-26 18:00 | 40.65707 | 47.89101 | 35936 ft | 472 kts | 114° |
| 2026-04-26 18:00 | 40.64644 | 47.93191 | 36134 ft | 472 kts | 115° |
| 2026-04-26 18:00 | 40.63581 | 47.97284 | 36308 ft | 472 kts | 115° |
| 2026-04-26 18:00 | 40.62516 | 48.01375 | 36484 ft | 472 kts | 115° |
| 2026-04-26 18:01 | 40.61451 | 48.05450 | 36715 ft | 469 kts | 115° |
| 2026-04-26 18:01 | 40.60389 | 48.09502 | 36900 ft | 469 kts | 115° |
| 2026-04-26 18:01 | 40.59325 | 48.13561 | 37044 ft | 469 kts | 115° |
| 2026-04-26 18:01 | 40.58258 | 48.17620 | 37180 ft | 469 kts | 115° |
| 2026-04-26 18:02 | 40.57189 | 48.21688 | 37316 ft | 470 kts | 115° |
| 2026-04-26 18:02 | 40.56478 | 48.24387 | 37404 ft | 470 kts | 115° |
| 2026-04-26 18:02 | 40.55060 | 48.29762 | 37587 ft | 470 kts | 115° |
| 2026-04-26 18:02 | 40.53985 | 48.33833 | 37715 ft | 470 kts | 115° |
| 2026-04-26 18:03 | 40.52913 | 48.37884 | 37837 ft | 470 kts | 115° |
| 2026-04-26 18:03 | 40.51836 | 48.41946 | 37956 ft | 470 kts | 115° |
| 2026-04-26 18:03 | 40.50763 | 48.45986 | 38079 ft | 470 kts | 115° |
| 2026-04-26 18:03 | 40.49681 | 48.50050 | 38183 ft | 470 kts | 115° |
| 2026-04-26 18:04 | 40.48599 | 48.54113 | 38299 ft | 470 kts | 115° |
| 2026-04-26 18:04 | 40.47519 | 48.58162 | 38408 ft | 470 kts | 116° |
| 2026-04-26 18:04 | 40.46435 | 48.62216 | 38519 ft | 470 kts | 116° |
| 2026-04-26 18:05 | 40.44268 | 48.70303 | 38701 ft | 470 kts | 116° |
| 2026-04-26 18:05 | 40.42092 | 48.78397 | 38850 ft | 470 kts | 116° |
| 2026-04-26 18:06 | 40.39913 | 48.86477 | 38967 ft | 470 kts | 116° |
| 2026-04-26 18:06 | 40.37742 | 48.94500 | 39056 ft | 470 kts | 116° |
| 2026-04-26 18:07 | 40.35556 | 49.02554 | 39060 ft | 469 kts | 116° |
| 2026-04-26 18:07 | 40.33372 | 49.10597 | 39057 ft | 469 kts | 116° |
| 2026-04-26 18:08 | 40.31190 | 49.18586 | 39054 ft | 469 kts | 116° |
| 2026-04-26 18:08 | 40.28990 | 49.26607 | 39056 ft | 468 kts | 116° |
| 2026-04-26 18:09 | 40.26788 | 49.34628 | 39056 ft | 468 kts | 116° |
| 2026-04-26 18:09 | 40.24564 | 49.42680 | 39056 ft | 468 kts | 116° |
| 2026-04-26 18:10 | 40.22342 | 49.50701 | 39057 ft | 468 kts | 116° |
| 2026-04-26 18:10 | 40.20132 | 49.58661 | 39057 ft | 468 kts | 116° |
| 2026-04-26 18:11 | 40.17904 | 49.66669 | 39061 ft | 468 kts | 116° |
| 2026-04-26 18:11 | 40.15673 | 49.74660 | 39061 ft | 468 kts | 116° |
| 2026-04-26 18:12 | 40.13434 | 49.82659 | 39063 ft | 468 kts | 116° |
| 2026-04-26 18:12 | 40.11189 | 49.90652 | 39067 ft | 468 kts | 116° |
| 2026-04-26 18:13 | 40.08939 | 49.98636 | 39065 ft | 468 kts | 116° |
| 2026-04-26 18:13 | 40.06686 | 50.06610 | 39069 ft | 468 kts | 116° |
| 2026-04-26 18:14 | 40.04422 | 50.14592 | 39075 ft | 469 kts | 116° |
| 2026-04-26 18:14 | 40.02157 | 50.22571 | 39073 ft | 469 kts | 116° |
| 2026-04-26 18:15 | 39.99899 | 50.30479 | 39080 ft | 469 kts | 116° |
| 2026-04-26 18:15 | 39.97594 | 50.38527 | 39080 ft | 469 kts | 116° |
| 2026-04-26 18:16 | 39.95321 | 50.46445 | 39082 ft | 470 kts | 116° |
| 2026-04-26 18:16 | 39.91874 | 50.58406 | 39081 ft | 470 kts | 116° |
| 2026-04-26 18:17 | 39.89566 | 50.66388 | 39083 ft | 470 kts | 116° |
| 2026-04-26 18:17 | 39.87254 | 50.74364 | 39084 ft | 470 kts | 116° |
| 2026-04-26 18:18 | 39.84934 | 50.82333 | 39079 ft | 471 kts | 116° |
| 2026-04-26 18:18 | 39.82608 | 50.90298 | 39083 ft | 471 kts | 116° |
| 2026-04-26 18:19 | 39.80278 | 50.98259 | 39079 ft | 471 kts | 116° |
| 2026-04-26 18:19 | 39.77953 | 51.06183 | 39079 ft | 472 kts | 116° |
| 2026-04-26 18:20 | 39.75604 | 51.14160 | 39081 ft | 472 kts | 117° |
| 2026-04-26 18:20 | 39.74033 | 51.19481 | 39082 ft | 472 kts | 117° |
| 2026-04-26 18:21 | 39.70897 | 51.30075 | 39081 ft | 473 kts | 117° |
| 2026-04-26 18:21 | 39.68527 | 51.38071 | 39083 ft | 473 kts | 117° |
| 2026-04-26 18:22 | 39.66162 | 51.46029 | 39079 ft | 473 kts | 117° |
| 2026-04-26 18:22 | 39.63690 | 51.53941 | 39077 ft | 472 kts | 118° |
| 2026-04-26 18:23 | 39.61211 | 51.61844 | 39077 ft | 473 kts | 117° |
| 2026-04-26 18:23 | 39.58753 | 51.69761 | 39082 ft | 473 kts | 116° |
| 2026-04-26 18:24 | 39.56470 | 51.77714 | 39079 ft | 474 kts | 115° |
| 2026-04-26 18:24 | 39.54179 | 51.85740 | 39086 ft | 474 kts | 115° |
| 2026-04-26 18:25 | 39.51856 | 51.93700 | 39081 ft | 473 kts | 116° |
| 2026-04-26 18:25 | 39.49496 | 52.01684 | 39084 ft | 473 kts | 116° |
| 2026-04-26 18:26 | 39.47138 | 52.09614 | 39076 ft | 473 kts | 116° |
| 2026-04-26 18:26 | 39.44765 | 52.17568 | 39078 ft | 472 kts | 116° |
| 2026-04-26 18:27 | 39.42390 | 52.25506 | 39080 ft | 472 kts | 116° |
| 2026-04-26 18:27 | 39.40013 | 52.33421 | 39076 ft | 472 kts | 116° |
| 2026-04-26 18:28 | 39.35373 | 52.48802 | 39078 ft | 472 kts | 116° |
| 2026-04-26 18:29 | 39.32980 | 52.56699 | 39081 ft | 472 kts | 116° |
| 2026-04-26 18:29 | 39.30579 | 52.64595 | 39078 ft | 472 kts | 116° |
| 2026-04-26 18:30 | 39.28185 | 52.72449 | 39071 ft | 472 kts | 116° |
| 2026-04-26 18:30 | 39.25757 | 52.80384 | 39077 ft | 472 kts | 116° |
| 2026-04-26 18:31 | 39.23324 | 52.88312 | 39075 ft | 472 kts | 116° |
| 2026-04-26 18:31 | 39.20919 | 52.96126 | 39076 ft | 472 kts | 116° |
| 2026-04-26 18:32 | 39.18488 | 53.04003 | 39076 ft | 472 kts | 116° |
| 2026-04-26 18:32 | 39.16052 | 53.11875 | 39078 ft | 473 kts | 116° |
| 2026-04-26 18:33 | 39.13603 | 53.19761 | 39076 ft | 473 kts | 116° |
| 2026-04-26 18:33 | 39.11156 | 53.27621 | 39076 ft | 473 kts | 116° |
| 2026-04-26 18:34 | 39.08704 | 53.35477 | 39072 ft | 473 kts | 116° |
| 2026-04-26 18:34 | 39.06244 | 53.43333 | 39069 ft | 474 kts | 116° |
| 2026-04-26 18:35 | 39.03771 | 53.51210 | 39074 ft | 474 kts | 116° |
| 2026-04-26 18:35 | 39.01298 | 53.59064 | 39066 ft | 474 kts | 116° |
| 2026-04-26 18:36 | 38.98814 | 53.66928 | 39063 ft | 474 kts | 116° |
| 2026-04-26 18:36 | 38.96326 | 53.74785 | 39069 ft | 474 kts | 116° |
| 2026-04-26 18:37 | 38.93835 | 53.82628 | 39064 ft | 474 kts | 116° |
| 2026-04-26 18:37 | 38.91339 | 53.90466 | 39057 ft | 474 kts | 116° |
| 2026-04-26 18:38 | 38.88835 | 53.98307 | 39052 ft | 475 kts | 116° |
| 2026-04-26 18:38 | 38.86326 | 54.06139 | 39051 ft | 475 kts | 116° |
| 2026-04-26 18:39 | 38.83805 | 54.13989 | 39055 ft | 475 kts | 116° |
| 2026-04-26 18:39 | 38.81284 | 54.21817 | 39053 ft | 475 kts | 116° |
| 2026-04-26 18:40 | 38.78758 | 54.29640 | 39053 ft | 475 kts | 116° |
| 2026-04-26 18:40 | 38.76240 | 54.37413 | 39041 ft | 475 kts | 116° |
| 2026-04-26 18:41 | 38.73703 | 54.45226 | 39042 ft | 475 kts | 116° |
| 2026-04-26 18:41 | 38.71161 | 54.53034 | 39044 ft | 475 kts | 117° |
| 2026-04-26 18:42 | 38.68604 | 54.60864 | 39039 ft | 475 kts | 117° |
| 2026-04-26 18:42 | 38.66049 | 54.68668 | 39036 ft | 475 kts | 117° |
| 2026-04-26 18:43 | 38.63917 | 54.75162 | 39037 ft | 476 kts | 117° |
| 2026-04-26 18:43 | 38.61348 | 54.82969 | 39037 ft | 476 kts | 117° |
| 2026-04-26 18:44 | 38.58765 | 54.90796 | 39032 ft | 477 kts | 117° |
| 2026-04-26 18:44 | 38.56182 | 54.98602 | 39034 ft | 477 kts | 117° |
| 2026-04-26 18:45 | 38.53595 | 55.06399 | 39034 ft | 477 kts | 117° |
| 2026-04-26 18:45 | 38.51001 | 55.14193 | 39034 ft | 477 kts | 117° |
| 2026-04-26 18:46 | 38.48414 | 55.21947 | 39034 ft | 478 kts | 117° |
| 2026-04-26 18:46 | 38.45787 | 55.29797 | 39034 ft | 478 kts | 117° |
| 2026-04-26 18:47 | 38.43189 | 55.37541 | 39034 ft | 478 kts | 117° |
| 2026-04-26 18:47 | 38.40553 | 55.45380 | 39033 ft | 478 kts | 117° |
| 2026-04-26 18:48 | 38.37947 | 55.53106 | 39033 ft | 477 kts | 117° |
| 2026-04-26 18:48 | 38.35318 | 55.60881 | 39035 ft | 477 kts | 117° |
| 2026-04-26 18:49 | 38.32688 | 55.68637 | 39031 ft | 477 kts | 117° |
| 2026-04-26 18:49 | 38.30052 | 55.76391 | 39034 ft | 477 kts | 118° |
| 2026-04-26 18:50 | 38.27427 | 55.84088 | 39033 ft | 476 kts | 118° |
| 2026-04-26 18:50 | 38.24773 | 55.91854 | 39035 ft | 476 kts | 118° |
| 2026-04-26 18:51 | 38.22138 | 55.99544 | 39035 ft | 476 kts | 118° |
| 2026-04-26 18:51 | 38.19488 | 56.07253 | 39040 ft | 476 kts | 118° |
| 2026-04-26 18:52 | 38.16830 | 56.14970 | 39039 ft | 477 kts | 118° |
| 2026-04-26 18:52 | 38.14164 | 56.22696 | 39040 ft | 477 kts | 118° |
| 2026-04-26 18:53 | 38.11438 | 56.30374 | 39040 ft | 475 kts | 122° |
| 2026-04-26 18:53 | 38.08065 | 56.37533 | 39045 ft | 470 kts | 131° |
| 2026-04-26 18:54 | 38.04090 | 56.44031 | 39046 ft | 469 kts | 134° |
| 2026-04-26 18:54 | 38.00065 | 56.50538 | 39049 ft | 470 kts | 133° |
| 2026-04-26 18:55 | 37.96046 | 56.57093 | 39045 ft | 471 kts | 133° |
| 2026-04-26 18:55 | 37.92035 | 56.63649 | 39049 ft | 471 kts | 133° |
| 2026-04-26 18:56 | 37.88012 | 56.70212 | 39049 ft | 471 kts | 133° |
| 2026-04-26 18:56 | 37.83981 | 56.76771 | 39048 ft | 472 kts | 133° |
| 2026-04-26 18:57 | 37.80637 | 56.82202 | 39042 ft | 471 kts | 133° |
| 2026-04-26 18:57 | 37.75903 | 56.89871 | 39041 ft | 472 kts | 133° |
| 2026-04-26 18:58 | 37.71867 | 56.96398 | 39045 ft | 471 kts | 133° |
| 2026-04-26 18:58 | 37.67822 | 57.02924 | 39064 ft | 471 kts | 133° |
| 2026-04-26 18:59 | 37.63777 | 57.09437 | 39086 ft | 471 kts | 133° |
| 2026-04-26 18:59 | 37.59725 | 57.15946 | 39106 ft | 471 kts | 133° |
| 2026-04-26 19:00 | 37.55708 | 57.22389 | 39126 ft | 471 kts | 133° |
| 2026-04-26 19:00 | 37.51645 | 57.28891 | 39129 ft | 471 kts | 133° |
| 2026-04-26 19:01 | 37.47737 | 57.35551 | 39124 ft | 474 kts | 128° |
| 2026-04-26 19:01 | 37.44086 | 57.42475 | 39117 ft | 475 kts | 128° |
| 2026-04-26 19:02 | 37.40415 | 57.49470 | 39112 ft | 475 kts | 128° |
| 2026-04-26 19:02 | 37.37385 | 57.55223 | 39095 ft | 476 kts | 128° |
| 2026-04-26 19:03 | 37.33117 | 57.63295 | 39080 ft | 476 kts | 128° |
| 2026-04-26 19:03 | 37.29424 | 57.70261 | 39059 ft | 476 kts | 128° |
| 2026-04-26 19:04 | 37.25765 | 57.77146 | 39066 ft | 477 kts | 128° |
| 2026-04-26 19:04 | 37.22072 | 57.84083 | 39075 ft | 478 kts | 128° |
| 2026-04-26 19:05 | 37.16522 | 57.94478 | 39080 ft | 478 kts | 128° |
| 2026-04-26 19:06 | 37.12808 | 58.01418 | 39088 ft | 479 kts | 128° |
| 2026-04-26 19:06 | 37.09103 | 58.08347 | 39088 ft | 480 kts | 128° |
| 2026-04-26 19:07 | 37.05387 | 58.15296 | 39094 ft | 480 kts | 128° |
| 2026-04-26 19:07 | 37.01665 | 58.22238 | 39104 ft | 480 kts | 128° |
| 2026-04-26 19:08 | 36.97961 | 58.29130 | 39108 ft | 480 kts | 128° |
| 2026-04-26 19:08 | 36.94206 | 58.36104 | 39110 ft | 480 kts | 128° |
| 2026-04-26 19:09 | 36.90498 | 58.42976 | 39119 ft | 479 kts | 128° |
| 2026-04-26 19:09 | 36.86770 | 58.49867 | 39126 ft | 480 kts | 128° |
| 2026-04-26 19:10 | 36.83024 | 58.56778 | 39131 ft | 480 kts | 128° |
| 2026-04-26 19:10 | 36.79282 | 58.63669 | 39132 ft | 479 kts | 128° |
| 2026-04-26 19:11 | 36.75527 | 58.70547 | 39140 ft | 479 kts | 129° |
| 2026-04-26 19:11 | 36.71773 | 58.77402 | 39142 ft | 479 kts | 129° |
| 2026-04-26 19:12 | 36.67997 | 58.84284 | 39144 ft | 480 kts | 129° |
| 2026-04-26 19:12 | 36.64224 | 58.91152 | 39144 ft | 480 kts | 129° |
| 2026-04-26 19:13 | 36.60475 | 58.97960 | 39170 ft | 480 kts | 129° |
| 2026-04-26 19:13 | 36.56693 | 59.04813 | 39167 ft | 479 kts | 129° |
| 2026-04-26 19:14 | 36.52890 | 59.11692 | 39169 ft | 481 kts | 129° |
| 2026-04-26 19:14 | 36.49092 | 59.18549 | 39168 ft | 481 kts | 129° |
| 2026-04-26 19:15 | 36.45285 | 59.25408 | 39173 ft | 481 kts | 129° |
| 2026-04-26 19:15 | 36.41479 | 59.32250 | 39174 ft | 482 kts | 129° |
| 2026-04-26 19:16 | 36.37691 | 59.39045 | 39171 ft | 483 kts | 129° |
| 2026-04-26 19:16 | 36.33883 | 59.45865 | 39177 ft | 483 kts | 129° |
| 2026-04-26 19:17 | 36.30034 | 59.52739 | 39183 ft | 484 kts | 130° |
| 2026-04-26 19:17 | 36.26177 | 59.59616 | 39184 ft | 484 kts | 130° |
| 2026-04-26 19:18 | 36.22224 | 59.66385 | 39181 ft | 485 kts | 136° |
| 2026-04-26 19:18 | 36.17774 | 59.72709 | 39185 ft | 489 kts | 137° |
| 2026-04-26 19:19 | 36.13255 | 59.79080 | 39175 ft | 494 kts | 136° |
| 2026-04-26 19:19 | 36.08717 | 59.85496 | 39178 ft | 495 kts | 136° |
| 2026-04-26 19:20 | 36.04176 | 59.91917 | 39172 ft | 495 kts | 136° |
| 2026-04-26 19:20 | 35.99642 | 59.98315 | 39174 ft | 495 kts | 137° |
| 2026-04-26 19:21 | 35.95134 | 60.04664 | 39175 ft | 494 kts | 137° |
| 2026-04-26 19:21 | 35.90597 | 60.11040 | 39171 ft | 494 kts | 137° |
| 2026-04-26 19:22 | 35.86048 | 60.17420 | 39173 ft | 495 kts | 137° |
| 2026-04-26 19:22 | 35.82260 | 60.22725 | 39171 ft | 495 kts | 137° |
| 2026-04-26 19:23 | 35.77705 | 60.29094 | 39169 ft | 495 kts | 137° |
| 2026-04-26 19:23 | 35.73154 | 60.35445 | 39167 ft | 495 kts | 137° |
| 2026-04-26 19:24 | 35.68596 | 60.41792 | 39166 ft | 495 kts | 137° |
| 2026-04-26 19:24 | 35.61742 | 60.51315 | 39159 ft | 496 kts | 137° |
| 2026-04-26 19:25 | 35.57900 | 60.56642 | 39161 ft | 496 kts | 137° |
| 2026-04-26 19:25 | 35.52589 | 60.64026 | 39154 ft | 496 kts | 137° |
| 2026-04-26 19:26 | 35.48025 | 60.70387 | 39146 ft | 496 kts | 137° |
| 2026-04-26 19:26 | 35.43448 | 60.76752 | 39143 ft | 496 kts | 137° |
| 2026-04-26 19:27 | 35.38876 | 60.83093 | 39141 ft | 496 kts | 137° |
| 2026-04-26 19:27 | 35.34304 | 60.89423 | 39140 ft | 496 kts | 137° |
| 2026-04-26 19:28 | 35.29726 | 60.95748 | 39133 ft | 496 kts | 137° |
| 2026-04-26 19:28 | 35.25136 | 61.02079 | 39127 ft | 496 kts | 137° |
| 2026-04-26 19:29 | 35.20573 | 61.08361 | 39122 ft | 497 kts | 137° |
| 2026-04-26 19:29 | 35.15922 | 61.14593 | 39121 ft | 492 kts | 143° |
| 2026-04-26 19:30 | 35.11036 | 61.20214 | 39111 ft | 474 kts | 143° |
| 2026-04-26 19:30 | 35.07020 | 61.24792 | 39115 ft | 477 kts | 143° |
| 2026-04-26 19:31 | 35.01346 | 61.31277 | 39113 ft | 478 kts | 143° |
| 2026-04-26 19:31 | 34.96520 | 61.36806 | 39100 ft | 479 kts | 143° |
| 2026-04-26 19:32 | 34.91639 | 61.42391 | 39095 ft | 479 kts | 143° |
| 2026-04-26 19:32 | 34.86777 | 61.47946 | 39092 ft | 479 kts | 143° |
| 2026-04-26 19:33 | 34.81943 | 61.53458 | 39091 ft | 479 kts | 143° |
| 2026-04-26 19:33 | 34.77077 | 61.58997 | 39090 ft | 478 kts | 143° |
| 2026-04-26 19:34 | 34.72214 | 61.64524 | 39082 ft | 478 kts | 143° |
| 2026-04-26 19:34 | 34.67350 | 61.70042 | 39078 ft | 478 kts | 143° |
| 2026-04-26 19:35 | 34.62481 | 61.75556 | 39070 ft | 478 kts | 143° |
| 2026-04-26 19:35 | 34.57610 | 61.81064 | 39065 ft | 478 kts | 143° |